createdAt,value
2018-03-24T00:00:07.260Z,3.09
2018-03-24T00:01:07.249Z,3.10
2018-03-24T00:02:07.249Z,3.12
2018-03-24T00:03:07.240Z,3.07
2018-03-24T00:04:07.234Z,3.09
2018-03-24T00:05:07.234Z,3.13
2018-03-24T00:06:07.224Z,3.07
2018-03-24T00:07:07.224Z,3.10
2018-03-24T00:08:07.216Z,3.06
2018-03-24T00:09:07.209Z,3.12
2018-03-24T00:10:07.203Z,3.09
2018-03-24T00:11:07.199Z,3.06
2018-03-24T00:12:07.195Z,3.06
2018-03-24T00:13:07.190Z,3.07
2018-03-24T00:14:07.188Z,3.06
2018-03-24T00:15:07.180Z,3.12
2018-03-24T00:16:07.177Z,3.07
2018-03-24T00:17:07.170Z,3.06
2018-03-24T00:18:07.164Z,3.07
2018-03-24T00:19:07.166Z,3.09
2018-03-24T00:20:07.154Z,3.07
2018-03-24T00:21:07.152Z,3.06
2018-03-24T00:22:07.145Z,3.10
2018-03-24T00:23:07.141Z,3.07
2018-03-24T00:24:07.134Z,3.13
2018-03-24T00:25:07.133Z,3.06
2018-03-24T00:26:07.124Z,3.09
2018-03-24T00:27:07.120Z,3.07
2018-03-24T00:28:07.127Z,3.10
2018-03-24T00:29:07.109Z,3.10
2018-03-24T00:30:07.108Z,3.06
2018-03-24T00:31:07.127Z,3.03
2018-03-24T00:32:07.094Z,3.10
2018-03-24T00:33:07.089Z,3.10
2018-03-24T00:34:07.110Z,3.06
2018-03-24T00:35:07.083Z,3.09
2018-03-24T00:36:07.074Z,3.06
2018-03-24T00:37:07.073Z,3.07
2018-03-24T00:38:07.065Z,3.09
2018-03-24T00:39:07.063Z,3.07
2018-03-24T00:40:07.056Z,3.05
2018-03-24T00:41:07.051Z,3.07
2018-03-24T00:42:07.046Z,3.07
2018-03-24T00:43:07.043Z,3.07
2018-03-24T00:44:07.034Z,3.02
2018-03-24T00:45:07.033Z,3.06
2018-03-24T00:46:07.025Z,3.03
2018-03-24T00:47:07.022Z,3.09
2018-03-24T00:48:07.014Z,3.06
2018-03-24T00:49:07.010Z,2.97
2018-03-24T00:50:07.005Z,3.07
2018-03-24T00:51:07.000Z,3.05
2018-03-24T00:52:06.995Z,3.07
2018-03-24T00:53:06.989Z,3.05
2018-03-24T00:54:06.986Z,3.13
2018-03-24T00:55:06.980Z,3.06
2018-03-24T00:56:06.972Z,3.00
2018-03-24T00:57:06.971Z,3.06
2018-03-24T00:58:06.976Z,3.06
2018-03-24T00:59:06.958Z,3.02
2018-03-24T01:00:06.954Z,3.05
2018-03-24T01:01:06.949Z,3.06
2018-03-24T01:02:06.946Z,3.06
2018-03-24T01:03:06.940Z,2.94
2018-03-24T01:04:06.932Z,3.02
2018-03-24T01:05:06.930Z,3.05
2018-03-24T01:06:06.924Z,3.05
2018-03-24T01:07:06.930Z,3.10
2018-03-24T01:08:06.915Z,3.07
2018-03-24T01:09:06.908Z,3.06
2018-03-24T01:10:06.905Z,3.06
2018-03-24T01:11:06.900Z,3.07
2018-03-24T01:12:06.893Z,3.09
2018-03-24T01:13:06.889Z,3.06
2018-03-24T01:14:06.882Z,3.07
2018-03-24T01:15:06.878Z,3.09
2018-03-24T01:16:06.872Z,3.09
2018-03-24T01:17:06.867Z,3.02
2018-03-24T01:18:06.866Z,3.12
2018-03-24T01:19:06.858Z,3.05
2018-03-24T01:20:06.849Z,3.06
2018-03-24T01:21:06.853Z,2.95
2018-03-24T01:22:06.848Z,2.91
2018-03-24T01:23:06.840Z,2.89
2018-03-24T01:24:06.831Z,2.94
2018-03-24T01:25:06.828Z,2.91
2018-03-24T01:26:06.822Z,2.98
2018-03-24T01:27:06.817Z,2.84
2018-03-24T01:28:06.814Z,2.92
2018-03-24T01:29:06.807Z,2.91
2018-03-24T01:30:06.801Z,2.85
2018-03-24T01:31:06.799Z,2.92
2018-03-24T01:32:06.792Z,2.92
2018-03-24T01:33:06.796Z,2.92
2018-03-24T01:34:06.781Z,2.84
2018-03-24T01:35:06.776Z,2.91
2018-03-24T01:36:06.770Z,2.84
2018-03-24T01:37:06.765Z,2.94
2018-03-24T01:38:06.778Z,2.87
2018-03-24T01:39:06.755Z,2.84
2018-03-24T01:40:06.750Z,2.82
2018-03-24T01:41:06.762Z,2.87
2018-03-24T01:42:06.739Z,2.87
2018-03-24T01:43:06.737Z,2.88
2018-03-24T01:44:06.731Z,2.87
2018-03-24T01:45:06.723Z,2.87
2018-03-24T01:46:06.724Z,2.89
2018-03-24T01:47:06.714Z,2.85
2018-03-24T01:48:06.711Z,2.87
2018-03-24T01:49:06.719Z,2.85
2018-03-24T01:50:06.699Z,2.85
2018-03-24T01:51:06.698Z,2.79
2018-03-24T01:52:06.688Z,2.73
2018-03-24T01:53:06.683Z,2.70
2018-03-24T01:54:06.680Z,2.69
2018-03-24T01:55:06.680Z,2.82
2018-03-24T01:56:06.668Z,2.79
2018-03-24T01:57:06.662Z,2.81
2018-03-24T01:58:06.663Z,2.70
2018-03-24T01:59:06.653Z,2.67
2018-03-24T02:00:06.648Z,2.67
2018-03-24T02:01:06.642Z,2.76
2018-03-24T02:02:06.635Z,2.70
2018-03-24T02:03:06.635Z,2.64
2018-03-24T02:04:06.626Z,2.58
2018-03-24T02:05:06.620Z,2.64
2018-03-24T02:06:06.616Z,2.61
2018-03-24T02:07:06.611Z,2.61
2018-03-24T02:08:06.603Z,2.66
2018-03-24T02:09:06.599Z,2.63
2018-03-24T02:10:06.595Z,2.67
2018-03-24T02:11:06.590Z,2.64
2018-03-24T02:12:06.582Z,2.61
2018-03-24T02:13:06.576Z,2.63
2018-03-24T02:14:06.575Z,2.69
2018-03-24T02:15:06.568Z,2.63
2018-03-24T02:16:06.562Z,2.63
2018-03-24T02:17:06.556Z,2.63
2018-03-24T02:18:06.553Z,2.59
2018-03-24T02:19:06.548Z,2.55
2018-03-24T02:20:06.539Z,2.56
2018-03-24T02:21:06.539Z,2.52
2018-03-24T02:22:06.530Z,2.52
2018-03-24T02:23:06.524Z,2.46
2018-03-24T02:24:06.518Z,2.46
2018-03-24T02:25:06.512Z,2.46
2018-03-24T02:26:06.508Z,2.44
2018-03-24T02:27:06.502Z,2.41
2018-03-24T02:28:06.498Z,2.41
2018-03-24T02:29:06.495Z,2.41
2018-03-24T02:30:06.486Z,2.41
2018-03-24T02:31:06.482Z,2.45
2018-03-24T02:32:06.474Z,2.37
2018-03-24T02:33:06.471Z,2.37
2018-03-24T02:34:06.464Z,2.31
2018-03-24T02:35:06.459Z,2.35
2018-03-24T02:36:06.460Z,2.31
2018-03-24T02:37:06.450Z,2.37
2018-03-24T02:38:06.444Z,2.33
2018-03-24T02:39:06.438Z,2.34
2018-03-24T02:40:06.466Z,2.30
2018-03-24T02:41:06.425Z,2.27
2018-03-24T02:42:06.446Z,2.31
2018-03-24T02:43:06.418Z,2.26
2018-03-24T02:44:06.408Z,2.22
2018-03-24T02:45:06.403Z,2.26
2018-03-24T02:46:06.400Z,2.20
2018-03-24T02:47:06.393Z,2.16
2018-03-24T02:48:06.389Z,2.16
2018-03-24T02:49:06.456Z,2.04
2018-03-24T02:50:06.378Z,1.99
2018-03-24T02:51:06.369Z,2.04
2018-03-24T02:52:06.367Z,2.06
2018-03-24T02:53:06.361Z,2.17
2018-03-24T02:54:06.355Z,2.06
2018-03-24T02:55:06.348Z,2.04
2018-03-24T02:56:06.342Z,2.01
2018-03-24T02:57:08.036Z,2.04
2018-03-24T02:58:06.342Z,1.98
2018-03-24T02:59:06.327Z,1.97
2018-03-24T03:00:06.322Z,2.01
2018-03-24T03:01:06.314Z,1.99
2018-03-24T03:02:06.308Z,2.09
2018-03-24T03:03:06.356Z,1.99
2018-03-24T03:04:06.306Z,1.98
2018-03-24T03:05:06.290Z,1.91
2018-03-24T03:06:06.288Z,1.85
2018-03-24T03:07:06.278Z,1.89
2018-03-24T03:08:06.275Z,1.94
2018-03-24T03:09:06.271Z,1.90
2018-03-24T03:10:06.267Z,1.85
2018-03-24T03:11:06.257Z,1.85
2018-03-24T03:12:06.279Z,1.91
2018-03-24T03:13:06.251Z,1.89
2018-03-24T03:14:06.246Z,1.93
2018-03-24T03:15:06.245Z,1.87
2018-03-24T03:16:06.224Z,1.80
2018-03-24T03:17:06.244Z,1.82
2018-03-24T03:18:06.214Z,1.79
2018-03-24T03:19:06.218Z,1.91
2018-03-24T03:20:06.214Z,1.79
2018-03-24T03:21:06.197Z,1.90
2018-03-24T03:22:06.194Z,1.93
2018-03-24T03:23:06.185Z,1.82
2018-03-24T03:24:06.180Z,1.80
2018-03-24T03:25:06.179Z,1.93
2018-03-24T03:26:06.167Z,1.76
2018-03-24T03:27:06.161Z,1.90
2018-03-24T03:28:06.210Z,1.79
2018-03-24T03:29:06.147Z,1.79
2018-03-24T03:30:06.146Z,1.80
2018-03-24T03:31:06.141Z,1.78
2018-03-24T03:32:06.136Z,1.68
2018-03-24T03:33:06.171Z,1.69
2018-03-24T03:34:06.127Z,1.62
2018-03-24T03:35:06.116Z,1.69
2018-03-24T03:36:06.111Z,1.68
2018-03-24T03:37:06.104Z,1.64
2018-03-24T03:38:06.097Z,1.69
2018-03-24T03:39:06.104Z,1.61
2018-03-24T03:40:13.033Z,1.57
2018-03-24T03:41:06.091Z,1.55
2018-03-24T03:42:06.073Z,1.46
2018-03-24T03:43:06.064Z,1.58
2018-03-24T03:44:06.059Z,1.60
2018-03-24T03:45:06.051Z,1.62
2018-03-24T03:46:06.049Z,1.47
2018-03-24T03:47:06.038Z,1.55
2018-03-24T03:48:06.036Z,1.51
2018-03-24T03:49:06.027Z,1.50
2018-03-24T03:50:06.021Z,1.47
2018-03-24T03:51:06.022Z,1.50
2018-03-24T03:52:06.010Z,1.50
2018-03-24T03:53:06.004Z,1.43
2018-03-24T03:54:05.998Z,1.42
2018-03-24T03:55:05.991Z,1.51
2018-03-24T03:56:05.984Z,1.52
2018-03-24T03:57:05.980Z,1.51
2018-03-24T03:58:05.972Z,1.46
2018-03-24T03:59:05.975Z,1.50
2018-03-24T04:00:05.961Z,1.46
2018-03-24T04:01:05.960Z,1.60
2018-03-24T04:02:05.990Z,1.57
2018-03-24T04:03:05.943Z,1.51
2018-03-24T04:04:05.995Z,1.61
2018-03-24T04:05:05.926Z,1.55
2018-03-24T04:06:05.923Z,1.58
2018-03-24T04:07:05.919Z,1.64
2018-03-24T04:08:05.910Z,1.46
2018-03-24T04:09:05.908Z,1.55
2018-03-24T04:10:05.898Z,1.47
2018-03-24T04:11:05.892Z,1.55
2018-03-24T04:12:05.908Z,1.60
2018-03-24T04:13:05.895Z,1.54
2018-03-24T04:14:05.872Z,1.54
2018-03-24T04:15:05.897Z,1.47
2018-03-24T04:16:05.861Z,1.47
2018-03-24T04:17:05.856Z,1.52
2018-03-24T04:18:05.850Z,1.46
2018-03-24T04:19:05.842Z,1.42
2018-03-24T04:20:05.841Z,1.43
2018-03-24T04:21:05.829Z,1.46
2018-03-24T04:22:05.825Z,1.47
2018-03-24T04:23:05.823Z,1.52
2018-03-24T04:24:05.811Z,1.50
2018-03-24T04:25:05.812Z,1.47
2018-03-24T04:26:05.797Z,1.42
2018-03-24T04:27:05.791Z,1.37
2018-03-24T04:28:05.789Z,1.40
2018-03-24T04:29:05.783Z,1.39
2018-03-24T04:30:05.775Z,1.34
2018-03-24T04:31:05.768Z,1.32
2018-03-24T04:32:05.760Z,1.36
2018-03-24T04:33:05.764Z,1.34
2018-03-24T04:34:05.749Z,1.32
2018-03-24T04:35:05.744Z,1.34
2018-03-24T04:36:05.738Z,1.29
2018-03-24T04:37:05.733Z,1.29
2018-03-24T04:38:05.724Z,1.29
2018-03-24T04:39:05.718Z,1.29
2018-03-24T04:40:05.710Z,1.29
2018-03-24T04:41:05.702Z,1.28
2018-03-24T04:42:05.699Z,1.33
2018-03-24T04:43:05.691Z,1.19
2018-03-24T04:44:05.685Z,1.21
2018-03-24T04:45:05.697Z,1.21
2018-03-24T04:46:05.676Z,1.10
2018-03-24T04:47:05.667Z,1.21
2018-03-24T04:48:05.658Z,1.04
2018-03-24T04:49:05.653Z,1.12
2018-03-24T04:50:05.648Z,1.15
2018-03-24T04:51:05.639Z,1.07
2018-03-24T04:52:05.632Z,1.10
2018-03-24T04:53:05.628Z,1.08
2018-03-24T04:54:05.623Z,1.12
2018-03-24T04:55:05.618Z,1.19
2018-03-24T04:56:05.614Z,1.14
2018-03-24T04:57:05.603Z,1.14
2018-03-24T04:58:05.597Z,1.07
2018-03-24T04:59:05.589Z,1.01
2018-03-24T05:00:05.582Z,1.01
2018-03-24T05:01:05.576Z,1.01
2018-03-24T05:02:05.569Z,1.04
2018-03-24T05:03:05.564Z,1.00
2018-03-24T05:04:05.556Z,1.04
2018-03-24T05:05:05.555Z,0.98
2018-03-24T05:06:05.545Z,1.03
2018-03-24T05:07:05.561Z,1.00
2018-03-24T05:08:05.531Z,1.04
2018-03-24T05:09:05.523Z,1.00
2018-03-24T05:10:05.522Z,1.01
2018-03-24T05:11:05.514Z,0.97
2018-03-24T05:12:05.505Z,1.00
2018-03-24T05:13:05.497Z,1.00
2018-03-24T05:14:05.497Z,1.03
2018-03-24T05:15:05.484Z,1.00
2018-03-24T05:16:05.479Z,0.98
2018-03-24T05:17:05.482Z,1.01
2018-03-24T05:18:05.558Z,0.97
2018-03-24T05:19:05.459Z,0.97
2018-03-24T05:20:05.457Z,0.94
2018-03-24T05:21:05.446Z,0.97
2018-03-24T05:22:05.439Z,0.96
2018-03-24T05:23:05.433Z,0.89
2018-03-24T05:24:05.425Z,0.94
2018-03-24T05:25:05.421Z,0.92
2018-03-24T05:26:05.462Z,1.01
2018-03-24T05:27:05.411Z,0.98
2018-03-24T05:28:05.434Z,0.97
2018-03-24T05:29:05.393Z,1.00
2018-03-24T05:30:05.388Z,1.01
2018-03-24T05:31:05.385Z,1.04
2018-03-24T05:32:05.375Z,1.07
2018-03-24T05:33:05.366Z,1.15
2018-03-24T05:34:05.361Z,1.14
2018-03-24T05:35:05.354Z,1.10
2018-03-24T05:36:05.344Z,1.16
2018-03-24T05:37:05.339Z,1.14
2018-03-24T05:38:05.333Z,1.15
2018-03-24T05:39:05.349Z,1.10
2018-03-24T05:40:05.320Z,1.10
2018-03-24T05:41:05.312Z,1.14
2018-03-24T05:42:05.307Z,1.15
2018-03-24T05:43:05.300Z,1.24
2018-03-24T05:44:05.297Z,1.21
2018-03-24T05:45:05.288Z,1.19
2018-03-24T05:46:05.282Z,1.21
2018-03-24T05:47:05.279Z,1.21
2018-03-24T05:48:05.269Z,1.28
2018-03-24T05:49:05.261Z,1.33
2018-03-24T05:50:05.254Z,1.25
2018-03-24T05:51:05.251Z,1.22
2018-03-24T05:52:05.241Z,1.21
2018-03-24T05:53:05.234Z,1.28
2018-03-24T05:54:05.227Z,1.32
2018-03-24T05:55:05.222Z,1.28
2018-03-24T05:56:05.215Z,1.28
2018-03-24T05:57:05.207Z,1.32
2018-03-24T05:58:05.204Z,1.33
2018-03-24T05:59:05.234Z,1.36
2018-03-24T06:00:05.194Z,1.34
2018-03-24T06:01:05.184Z,1.47
2018-03-24T06:02:05.178Z,1.42
2018-03-24T06:03:05.172Z,1.50
2018-03-24T06:04:05.174Z,1.58
2018-03-24T06:05:05.158Z,1.54
2018-03-24T06:06:05.152Z,1.62
2018-03-24T06:07:05.146Z,1.71
2018-03-24T06:08:05.139Z,1.76
2018-03-24T06:09:05.133Z,1.82
2018-03-24T06:10:05.126Z,1.85
2018-03-24T06:11:05.121Z,2.08
2018-03-24T06:12:05.116Z,2.09
2018-03-24T06:13:05.120Z,2.09
2018-03-24T06:14:05.105Z,2.06
2018-03-24T06:15:05.096Z,2.12
2018-03-24T06:16:05.095Z,2.15
2018-03-24T06:17:05.087Z,2.19
2018-03-24T06:18:05.080Z,2.16
2018-03-24T06:19:05.074Z,2.20
2018-03-24T06:20:05.065Z,2.19
2018-03-24T06:21:05.062Z,2.30
2018-03-24T06:22:05.079Z,2.23
2018-03-24T06:23:05.050Z,2.30
2018-03-24T06:24:05.045Z,2.23
2018-03-24T06:25:05.037Z,2.22
2018-03-24T06:26:05.030Z,2.19
2018-03-24T06:27:05.025Z,2.15
2018-03-24T06:28:05.019Z,2.12
2018-03-24T06:29:05.014Z,2.19
2018-03-24T06:30:05.032Z,2.15
2018-03-24T06:31:05.004Z,2.16
2018-03-24T06:32:05.001Z,2.22
2018-03-24T06:33:04.992Z,2.20
2018-03-24T06:34:04.989Z,2.30
2018-03-24T06:35:04.982Z,2.33
2018-03-24T06:36:04.974Z,2.45
2018-03-24T06:37:05.004Z,2.41
2018-03-24T06:38:05.024Z,2.51
2018-03-24T06:39:04.959Z,2.66
2018-03-24T06:40:05.058Z,2.76
2018-03-24T06:41:04.955Z,2.81
2018-03-24T06:42:04.941Z,2.84
2018-03-24T06:43:04.940Z,2.85
2018-03-24T06:44:04.929Z,2.89
2018-03-24T06:45:04.923Z,3.09
2018-03-24T06:46:04.918Z,3.06
2018-03-24T06:47:04.921Z,3.21
2018-03-24T06:48:04.909Z,3.83
2018-03-24T06:49:04.904Z,5.04
2018-03-24T06:50:04.897Z,6.11
2018-03-24T06:51:04.897Z,7.07
2018-03-24T06:52:04.888Z,7.84
2018-03-24T06:53:04.884Z,8.51
2018-03-24T06:54:04.877Z,9.01
2018-03-24T06:55:04.873Z,9.43
2018-03-24T06:56:04.875Z,9.89
2018-03-24T06:57:04.863Z,10.28
2018-03-24T06:58:04.864Z,10.58
2018-03-24T06:59:04.862Z,10.94
2018-03-24T07:00:04.862Z,11.53
2018-03-24T07:01:04.854Z,11.85
2018-03-24T07:02:04.850Z,12.24
2018-03-24T07:03:04.849Z,12.52
2018-03-24T07:04:04.856Z,12.33
2018-03-24T07:05:04.856Z,12.70
2018-03-24T07:06:04.855Z,12.51
2018-03-24T07:07:04.848Z,12.82
2018-03-24T07:08:04.850Z,13.17
2018-03-24T07:09:04.851Z,12.97
2018-03-24T07:10:04.847Z,12.96
2018-03-24T07:11:04.849Z,12.89
2018-03-24T07:12:04.850Z,12.96
2018-03-24T07:13:04.852Z,12.70
2018-03-24T07:14:04.857Z,12.97
2018-03-24T07:15:04.859Z,13.12
2018-03-24T07:16:04.860Z,13.44
2018-03-24T07:17:04.860Z,13.69
2018-03-24T07:18:04.864Z,13.74
2018-03-24T07:19:04.872Z,13.63
2018-03-24T07:20:04.872Z,13.52
2018-03-24T07:21:04.875Z,13.43
2018-03-24T07:22:04.884Z,13.04
2018-03-24T07:23:04.882Z,13.21
2018-03-24T07:24:04.884Z,13.58
2018-03-24T07:25:04.892Z,14.27
2018-03-24T07:26:04.897Z,14.60
2018-03-24T07:27:04.899Z,14.86
2018-03-24T07:28:04.904Z,15.20
2018-03-24T07:29:04.913Z,15.12
2018-03-24T07:30:04.919Z,15.05
2018-03-24T07:31:04.928Z,14.83
2018-03-24T07:32:04.929Z,14.98
2018-03-24T07:33:04.932Z,14.99
2018-03-24T07:34:04.939Z,15.20
2018-03-24T07:35:04.950Z,15.12
2018-03-24T07:36:04.978Z,13.98
2018-03-24T07:37:04.962Z,13.17
2018-03-24T07:38:04.963Z,12.57
2018-03-24T07:39:04.999Z,13.58
2018-03-24T07:40:04.979Z,13.71
2018-03-24T07:41:04.988Z,14.02
2018-03-24T07:42:04.989Z,13.98
2018-03-24T07:43:05.002Z,14.13
2018-03-24T07:44:05.012Z,13.80
2018-03-24T07:45:05.012Z,13.88
2018-03-24T07:46:05.023Z,12.88
2018-03-24T07:47:05.034Z,11.97
2018-03-24T07:48:05.036Z,12.45
2018-03-24T07:49:05.038Z,12.23
2018-03-24T07:50:05.053Z,11.31
2018-03-24T07:51:05.056Z,11.87
2018-03-24T07:52:05.058Z,12.66
2018-03-24T07:53:05.090Z,12.08
2018-03-24T07:54:05.078Z,11.41
2018-03-24T07:55:05.085Z,10.86
2018-03-24T07:56:05.088Z,10.30
2018-03-24T07:57:05.100Z,10.26
2018-03-24T07:58:05.095Z,10.47
2018-03-24T07:59:05.102Z,10.77
2018-03-24T08:00:05.119Z,10.42
2018-03-24T08:01:05.121Z,10.03
2018-03-24T08:02:05.123Z,9.89
2018-03-24T08:03:05.130Z,9.79
2018-03-24T08:04:05.135Z,9.50
2018-03-24T08:05:05.144Z,9.31
2018-03-24T08:06:05.146Z,9.23
2018-03-24T08:07:05.158Z,8.94
2018-03-24T08:08:05.156Z,8.90
2018-03-24T08:09:05.162Z,8.78
2018-03-24T08:10:05.168Z,8.72
2018-03-24T08:11:05.171Z,8.53
2018-03-24T08:12:05.177Z,8.68
2018-03-24T08:13:05.183Z,8.73
2018-03-24T08:14:05.189Z,9.01
2018-03-24T08:15:05.191Z,9.04
2018-03-24T08:16:05.197Z,9.15
2018-03-24T08:17:05.203Z,9.31
2018-03-24T08:18:05.209Z,9.53
2018-03-24T08:19:05.209Z,9.53
2018-03-24T08:20:05.213Z,9.64
2018-03-24T08:21:05.221Z,9.76
2018-03-24T08:22:05.225Z,9.73
2018-03-24T08:23:05.230Z,9.79
2018-03-24T08:24:05.234Z,9.75
2018-03-24T08:25:05.532Z,9.78
2018-03-24T08:26:05.248Z,9.57
2018-03-24T08:27:13.932Z,9.45
2018-03-24T08:29:03.871Z,9.43
2018-03-24T08:29:59.655Z,9.32
2018-03-24T08:30:59.657Z,9.06
2018-03-24T08:31:59.630Z,9.12
2018-03-24T08:32:59.636Z,9.06
2018-03-24T08:33:59.669Z,8.86
2018-03-24T08:34:59.645Z,8.72
2018-03-24T08:35:59.646Z,8.62
2018-03-24T08:36:59.649Z,8.42
2018-03-24T08:37:59.694Z,8.30
2018-03-24T08:38:59.656Z,8.18
2018-03-24T08:39:59.659Z,8.22
2018-03-24T08:40:59.661Z,8.18
2018-03-24T08:41:59.741Z,8.29
2018-03-24T08:42:59.699Z,8.22
2018-03-24T08:44:00.198Z,8.44
2018-03-24T08:44:59.672Z,8.65
2018-03-24T08:45:59.675Z,8.97
2018-03-24T08:46:59.675Z,9.21
2018-03-24T08:47:59.677Z,9.52
2018-03-24T08:48:59.688Z,9.91
2018-03-24T08:50:00.041Z,9.99
2018-03-24T08:50:59.690Z,10.17
2018-03-24T08:51:59.691Z,10.51
2018-03-24T08:52:59.696Z,10.74
2018-03-24T08:53:59.707Z,11.11
2018-03-24T08:54:59.706Z,11.21
2018-03-24T08:55:59.714Z,11.47
2018-03-24T08:56:59.758Z,11.38
2018-03-24T08:57:59.728Z,11.31
2018-03-24T08:58:59.758Z,11.19
2018-03-24T08:59:59.741Z,11.19
2018-03-24T09:00:59.747Z,11.07
2018-03-24T09:01:59.755Z,11.17
2018-03-24T09:02:59.771Z,11.01
2018-03-24T09:03:59.777Z,10.78
2018-03-24T09:04:59.789Z,10.59
2018-03-24T09:05:59.790Z,10.70
2018-03-24T09:06:59.793Z,10.73
2018-03-24T09:07:59.799Z,10.56
2018-03-24T09:08:59.808Z,10.88
2018-03-24T09:09:59.813Z,10.89
2018-03-24T09:10:59.822Z,10.89
2018-03-24T09:11:59.830Z,10.68
2018-03-24T09:12:59.837Z,9.79
2018-03-24T09:13:59.842Z,9.43
2018-03-24T09:14:59.883Z,9.30
2018-03-24T09:15:59.861Z,9.28
2018-03-24T09:16:59.862Z,9.23
2018-03-24T09:17:59.956Z,9.12
2018-03-24T09:19:00.052Z,9.01
2018-03-24T09:19:59.959Z,8.93
2018-03-24T09:20:59.995Z,8.91
2018-03-24T09:21:59.906Z,8.93
2018-03-24T09:22:59.892Z,8.79
2018-03-24T09:23:59.903Z,8.99
2018-03-24T09:24:59.904Z,9.39
2018-03-24T09:25:59.907Z,9.75
2018-03-24T09:26:59.913Z,9.89
2018-03-24T09:28:00.086Z,10.33
2018-03-24T09:29:00.798Z,10.32
2018-03-24T09:30:02.390Z,10.56
2018-03-24T09:30:59.943Z,10.56
2018-03-24T09:31:59.977Z,11.02
2018-03-24T09:33:00.163Z,11.20
2018-03-24T09:33:59.972Z,11.47
2018-03-24T09:35:00.007Z,11.46
2018-03-24T09:35:59.976Z,11.56
2018-03-24T09:36:59.969Z,11.39
2018-03-24T09:37:59.981Z,11.52
2018-03-24T09:39:00.155Z,10.94
2018-03-24T09:40:00.022Z,10.84
2018-03-24T09:41:00.004Z,10.99
2018-03-24T09:42:00.112Z,10.94
2018-03-24T09:43:00.023Z,10.76
2018-03-24T09:44:07.092Z,10.39
2018-03-24T09:45:00.850Z,10.36
2018-03-24T09:46:00.095Z,10.47
2018-03-24T09:47:00.088Z,10.70
2018-03-24T09:48:00.057Z,11.02
2018-03-24T09:49:00.061Z,11.28
2018-03-24T09:50:00.787Z,11.68
2018-03-24T09:51:00.078Z,11.85
2018-03-24T09:52:00.731Z,12.21
2018-03-24T09:53:00.107Z,12.08
2018-03-24T09:54:00.108Z,11.86
2018-03-24T09:55:00.708Z,12.26
2018-03-24T09:56:00.122Z,12.37
2018-03-24T09:57:00.138Z,12.26
2018-03-24T09:58:00.715Z,11.96
2018-03-24T09:59:00.236Z,11.67
2018-03-24T10:00:00.505Z,11.65
2018-03-24T10:01:00.178Z,11.75
2018-03-24T10:02:09.854Z,12.11
2018-03-24T10:03:54.774Z,12.37
2018-03-24T10:04:54.671Z,12.01
2018-03-24T10:05:54.670Z,12.37
2018-03-24T10:06:59.182Z,12.62
2018-03-24T10:07:54.654Z,12.63
2018-03-24T10:08:54.646Z,12.74
2018-03-24T10:09:54.731Z,12.52
2018-03-24T10:10:54.711Z,12.48
2018-03-24T10:11:54.679Z,12.45
2018-03-24T10:12:54.684Z,12.34
2018-03-24T10:13:54.693Z,12.29
2018-03-24T10:14:54.703Z,11.78
2018-03-24T10:15:54.851Z,11.75
2018-03-24T10:16:54.718Z,11.83
2018-03-24T10:17:54.725Z,11.83
2018-03-24T10:18:54.731Z,12.01
2018-03-24T10:19:54.741Z,12.11
2018-03-24T10:20:54.748Z,12.24
2018-03-24T10:21:54.793Z,12.37
2018-03-24T10:22:54.762Z,12.63
2018-03-24T10:23:54.767Z,12.95
2018-03-24T10:24:54.772Z,12.89
2018-03-24T10:25:54.779Z,13.03
2018-03-24T10:26:54.786Z,13.00
2018-03-24T10:27:54.795Z,13.29
2018-03-24T10:28:54.869Z,13.41
2018-03-24T10:29:54.805Z,12.75
2018-03-24T10:30:54.808Z,11.89
2018-03-24T10:31:54.847Z,11.67
2018-03-24T10:32:54.837Z,11.94
2018-03-24T10:33:54.833Z,12.19
2018-03-24T10:34:54.832Z,12.13
2018-03-24T10:35:54.838Z,12.30
2018-03-24T10:36:54.843Z,12.46
2018-03-24T10:37:54.848Z,12.51
2018-03-24T10:38:54.854Z,12.56
2018-03-24T10:39:54.873Z,12.67
2018-03-24T10:40:54.870Z,12.63
2018-03-24T10:41:54.869Z,12.57
2018-03-24T10:42:54.875Z,12.33
2018-03-24T10:43:54.887Z,12.70
2018-03-24T10:44:54.884Z,13.00
2018-03-24T10:45:54.890Z,13.30
2018-03-24T10:46:54.894Z,13.36
2018-03-24T10:47:54.902Z,13.63
2018-03-24T10:48:54.903Z,13.81
2018-03-24T10:49:54.906Z,13.69
2018-03-24T10:50:54.931Z,13.21
2018-03-24T10:51:54.936Z,12.96
2018-03-24T10:52:54.945Z,12.69
2018-03-24T10:53:54.927Z,12.62
2018-03-24T10:54:54.940Z,12.57
2018-03-24T10:55:55.068Z,12.87
2018-03-24T10:56:54.945Z,12.97
2018-03-24T10:57:54.967Z,12.99
2018-03-24T10:58:54.959Z,12.97
2018-03-24T10:59:54.985Z,12.81
2018-03-24T11:00:54.971Z,12.84
2018-03-24T11:01:54.969Z,12.97
2018-03-24T11:02:54.972Z,12.87
2018-03-24T11:03:54.984Z,12.48
2018-03-24T11:04:55.003Z,12.34
2018-03-24T11:05:54.982Z,12.34
2018-03-24T11:06:54.991Z,12.24
2018-03-24T11:07:55.006Z,12.21
2018-03-24T11:08:55.063Z,12.24
2018-03-24T11:09:55.006Z,12.04
2018-03-24T11:10:55.006Z,12.15
2018-03-24T11:11:55.011Z,11.99
2018-03-24T11:12:55.010Z,11.82
2018-03-24T11:13:55.018Z,11.67
2018-03-24T11:14:55.022Z,11.56
2018-03-24T11:15:55.025Z,11.61
2018-03-24T11:16:55.027Z,11.72
2018-03-24T11:17:55.044Z,11.86
2018-03-24T11:18:55.035Z,12.02
2018-03-24T11:19:55.108Z,12.12
2018-03-24T11:20:55.063Z,12.34
2018-03-24T11:21:55.077Z,12.39
2018-03-24T11:22:55.082Z,12.38
2018-03-24T11:23:55.050Z,12.38
2018-03-24T11:24:55.064Z,12.20
2018-03-24T11:25:55.057Z,12.08
2018-03-24T11:26:55.062Z,12.13
2018-03-24T11:27:55.068Z,12.09
2018-03-24T11:28:55.066Z,11.80
2018-03-24T11:29:55.071Z,11.77
2018-03-24T11:30:55.079Z,11.57
2018-03-24T11:31:55.085Z,11.80
2018-03-24T11:32:55.081Z,11.97
2018-03-24T11:33:55.087Z,12.12
2018-03-24T11:34:55.088Z,12.04
2018-03-24T11:35:55.092Z,11.70
2018-03-24T11:36:55.166Z,11.83
2018-03-24T11:38:05.358Z,11.82
2018-03-24T11:38:57.275Z,12.06
2018-03-24T11:39:55.106Z,12.13
2018-03-24T11:40:55.105Z,12.19
2018-03-24T11:41:55.116Z,12.34
2018-03-24T11:42:55.109Z,12.05
2018-03-24T11:43:55.260Z,12.24
2018-03-24T11:44:55.165Z,12.37
2018-03-24T11:45:55.115Z,12.46
2018-03-24T11:46:55.117Z,12.67
2018-03-24T11:47:55.123Z,12.85
2018-03-24T11:48:55.144Z,13.00
2018-03-24T11:49:55.146Z,12.96
2018-03-24T11:50:55.136Z,13.04
2018-03-24T11:51:55.134Z,13.20
2018-03-24T11:52:55.136Z,13.07
2018-03-24T11:53:55.168Z,13.11
2018-03-24T11:54:56.678Z,13.17
2018-03-24T11:55:57.684Z,13.46
2018-03-24T11:56:56.677Z,13.46
2018-03-24T11:57:55.155Z,13.62
2018-03-24T11:58:55.154Z,13.65
2018-03-24T11:59:55.160Z,13.46
2018-03-24T12:00:55.161Z,13.62
2018-03-24T12:01:55.191Z,13.30
2018-03-24T12:02:55.168Z,12.95
2018-03-24T12:03:55.167Z,12.95
2018-03-24T12:04:55.173Z,12.82
2018-03-24T12:05:55.176Z,12.88
2018-03-24T12:06:55.182Z,12.92
2018-03-24T12:07:55.191Z,12.95
2018-03-24T12:08:55.190Z,12.87
2018-03-24T12:09:55.192Z,12.81
2018-03-24T12:10:55.196Z,12.48
2018-03-24T12:11:55.195Z,12.69
2018-03-24T12:12:55.199Z,12.67
2018-03-24T12:13:55.202Z,12.45
2018-03-24T12:14:55.204Z,11.99
2018-03-24T12:15:55.206Z,11.87
2018-03-24T12:16:55.214Z,12.02
2018-03-24T12:17:55.211Z,12.26
2018-03-24T12:18:55.220Z,12.46
2018-03-24T12:19:55.221Z,12.20
2018-03-24T12:20:55.222Z,12.23
2018-03-24T12:21:55.222Z,12.48
2018-03-24T12:22:55.229Z,12.77
2018-03-24T12:23:55.231Z,13.03
2018-03-24T12:24:55.237Z,12.81
2018-03-24T12:25:55.234Z,12.92
2018-03-24T12:26:55.237Z,12.93
2018-03-24T12:27:55.241Z,12.87
2018-03-24T12:28:55.241Z,12.46
2018-03-24T12:29:55.248Z,12.46
2018-03-24T12:30:55.248Z,12.64
2018-03-24T12:31:55.250Z,12.88
2018-03-24T12:32:55.289Z,13.06
2018-03-24T12:33:55.267Z,13.27
2018-03-24T12:34:55.263Z,13.47
2018-03-24T12:35:55.272Z,13.51
2018-03-24T12:36:55.266Z,13.22
2018-03-24T12:37:55.271Z,13.18
2018-03-24T12:38:55.269Z,13.29
2018-03-24T12:39:55.294Z,13.07
2018-03-24T12:40:55.275Z,13.17
2018-03-24T12:41:55.293Z,13.20
2018-03-24T12:42:55.281Z,12.95
2018-03-24T12:43:55.285Z,13.00
2018-03-24T12:44:55.286Z,12.97
2018-03-24T12:45:55.357Z,13.00
2018-03-24T12:46:55.294Z,12.99
2018-03-24T12:47:55.296Z,13.20
2018-03-24T12:48:55.296Z,13.43
2018-03-24T12:49:55.300Z,13.52
2018-03-24T12:50:55.314Z,13.89
2018-03-24T12:51:55.307Z,13.74
2018-03-24T12:52:55.310Z,13.49
2018-03-24T12:53:55.307Z,13.40
2018-03-24T12:54:55.315Z,13.36
2018-03-24T12:55:55.323Z,13.43
2018-03-24T12:56:55.321Z,13.41
2018-03-24T12:57:55.322Z,13.49
2018-03-24T12:58:55.322Z,13.61
2018-03-24T12:59:55.328Z,13.74
2018-03-24T13:00:55.339Z,13.38
2018-03-24T13:01:55.334Z,13.43
2018-03-24T13:02:55.347Z,13.51
2018-03-24T13:03:55.352Z,13.62
2018-03-24T13:04:55.343Z,13.61
2018-03-24T13:05:55.349Z,13.29
2018-03-24T13:06:55.352Z,12.93
2018-03-24T13:07:55.349Z,12.97
2018-03-24T13:08:55.355Z,12.99
2018-03-24T13:09:55.359Z,12.97